createdAt,value
2023-06-01T00:02:04.547Z,5.87
2023-06-01T00:04:36.274Z,3.67
2023-06-01T00:09:39.555Z,3.07
2023-06-01T00:12:13.949Z,3.57
2023-06-01T00:14:45.363Z,4.27
2023-06-01T00:17:27.060Z,1.73
2023-06-01T00:22:30.418Z,2.17
2023-06-01T00:25:02.030Z,6.40
2023-06-01T00:30:18.804Z,3.30
2023-06-01T00:32:59.389Z,4.70
2023-06-01T00:35:36.072Z,2.43
2023-06-01T00:38:13.471Z,5.87
2023-06-01T00:40:48.024Z,4.23
2023-06-01T00:43:19.416Z,2.77
2023-06-01T00:45:48.800Z,4.47
2023-06-01T00:48:29.170Z,1.57
2023-06-01T00:50:59.084Z,3.40
2023-06-01T00:53:48.934Z,1.53
2023-06-01T00:56:26.751Z,4.50
2023-06-01T00:58:57.952Z,2.70
2023-06-01T01:01:29.783Z,3.70
2023-06-01T01:04:04.943Z,2.33
2023-06-01T01:07:00.000Z,2.37
2023-06-01T01:09:47.213Z,3.53
2023-06-01T01:12:30.560Z,4.33
2023-06-01T01:15:24.227Z,3.50
2023-06-01T01:18:04.492Z,2.87
2023-06-01T01:24:00.125Z,2.37
2023-06-01T01:27:08.877Z,2.90
2023-06-01T01:29:45.190Z,3.83
2023-06-01T01:32:17.059Z,4.27
2023-06-01T01:34:57.731Z,3.90
2023-06-01T01:37:34.664Z,2.67
2023-06-01T01:40:05.504Z,4.10
2023-06-01T01:42:36.788Z,3.20
2023-06-01T01:45:08.411Z,3.25
2023-06-01T01:48:05.509Z,2.88
2023-06-01T01:53:54.241Z,2.17
2023-06-01T01:59:14.779Z,4.43
2023-06-01T02:01:46.566Z,3.90
2023-06-01T02:04:32.805Z,4.47
2023-06-01T02:07:07.374Z,5.30
2023-06-01T02:09:38.629Z,3.70
2023-06-01T02:12:11.175Z,3.87
2023-06-01T02:14:44.887Z,3.78
2023-06-01T02:17:36.079Z,3.27
2023-06-01T02:20:08.930Z,4.35
2023-06-01T02:22:42.181Z,9.67
2023-06-01T02:25:12.965Z,2.97
2023-06-01T02:27:46.417Z,3.15
2023-06-01T02:30:19.541Z,4.40
2023-06-01T02:32:50.672Z,2.90
2023-06-01T02:35:29.960Z,3.25
2023-06-01T02:38:06.564Z,2.87
2023-06-01T02:40:34.430Z,2.93
2023-06-01T02:43:20.969Z,2.90
2023-06-01T02:45:55.792Z,4.07
2023-06-01T02:48:35.624Z,3.03
2023-06-01T02:51:10.461Z,4.33
2023-06-01T02:53:43.364Z,5.03
2023-06-01T02:56:23.215Z,10.23
2023-06-01T02:59:05.840Z,3.53
2023-06-01T03:01:40.422Z,3.43
2023-06-01T03:04:16.254Z,5.03
2023-06-01T03:06:53.810Z,4.87
2023-06-01T03:09:55.606Z,4.43
2023-06-01T03:12:45.351Z,3.43
2023-06-01T03:15:22.240Z,2.83
2023-06-01T03:18:02.078Z,6.17
2023-06-01T03:20:34.706Z,4.23
2023-06-01T03:23:12.815Z,4.78
2023-06-01T03:25:42.537Z,6.00
2023-06-01T03:28:20.490Z,3.33
2023-06-01T03:30:48.686Z,2.37
2023-06-01T03:33:23.093Z,7.00
2023-06-01T03:35:58.416Z,2.87
2023-06-01T03:41:39.539Z,4.75
2023-06-01T03:44:09.880Z,5.73
2023-06-01T03:46:44.706Z,3.40
2023-06-01T03:49:22.732Z,2.83
2023-06-01T03:51:56.179Z,5.33
2023-06-01T03:57:02.264Z,2.93
2023-06-01T03:59:49.577Z,2.93
2023-06-01T04:02:27.832Z,4.07
2023-06-01T04:07:49.974Z,2.42
2023-06-01T04:10:21.348Z,3.20
2023-06-01T04:12:53.346Z,3.40
2023-06-01T04:15:27.339Z,6.60
2023-06-01T04:17:56.222Z,4.27
2023-06-01T04:23:13.777Z,4.23
2023-06-01T04:25:47.267Z,2.63
2023-06-01T04:28:19.979Z,3.57
2023-06-01T04:30:53.936Z,3.67
2023-06-01T04:33:25.637Z,2.63
2023-06-01T04:36:00.629Z,5.70
2023-06-01T04:38:35.400Z,2.47
2023-06-01T04:41:12.072Z,5.10
2023-06-01T04:43:52.851Z,2.87
2023-06-01T04:46:27.829Z,3.93
2023-06-01T04:49:09.816Z,2.53
2023-06-01T04:51:48.675Z,4.00
2023-06-01T04:54:22.296Z,2.57
2023-06-01T04:56:53.958Z,5.03
2023-06-01T05:01:55.631Z,2.77
2023-06-01T05:04:36.245Z,3.63
2023-06-01T05:07:09.029Z,3.13
2023-06-01T05:09:43.318Z,4.13
2023-06-01T05:15:02.273Z,6.67
2023-06-01T05:17:37.382Z,5.20
2023-06-01T05:20:19.590Z,4.20
2023-06-01T05:22:58.155Z,3.50
2023-06-01T05:25:42.944Z,2.88
2023-06-01T05:28:16.859Z,4.53
2023-06-01T05:30:57.588Z,3.77
2023-06-01T05:33:29.101Z,4.85
2023-06-01T05:36:02.604Z,5.03
2023-06-01T05:38:36.962Z,10.33
2023-06-01T05:41:15.473Z,7.17
2023-06-01T05:43:48.136Z,4.70
2023-06-01T05:46:19.425Z,4.93
2023-06-01T05:48:54.540Z,2.85
2023-06-01T05:51:24.977Z,5.30
2023-06-01T05:53:55.790Z,2.58
2023-06-01T05:56:33.244Z,3.50
2023-06-01T05:59:04.885Z,4.73
2023-06-01T06:01:37.790Z,3.50
2023-06-01T06:07:05.599Z,3.97
2023-06-01T06:09:47.096Z,5.53
2023-06-01T06:12:25.314Z,4.55
2023-06-01T06:15:02.085Z,6.13
2023-06-01T06:17:35.764Z,5.70
2023-06-01T06:20:12.970Z,4.17
2023-06-01T06:22:51.791Z,3.20
2023-06-01T06:25:20.195Z,4.82
2023-06-01T06:27:52.285Z,5.27
2023-06-01T06:30:23.439Z,3.23
2023-06-01T06:32:55.471Z,6.10
2023-06-01T06:35:27.393Z,3.28
2023-06-01T06:37:58.715Z,4.27
2023-06-01T06:40:33.045Z,4.15
2023-06-01T06:43:04.777Z,6.00
2023-06-01T06:45:39.280Z,6.77
2023-06-01T06:48:15.526Z,11.53
2023-06-01T06:50:46.309Z,7.53
2023-06-01T06:53:16.824Z,4.28
2023-06-01T06:55:48.415Z,4.73
2023-06-01T07:00:49.026Z,5.38
2023-06-01T07:03:28.447Z,4.28
2023-06-01T07:05:58.969Z,5.45
2023-06-01T07:08:44.386Z,3.30
2023-06-01T07:14:04.271Z,4.38
2023-06-01T07:16:34.131Z,8.95
2023-06-01T07:19:14.520Z,4.32
2023-06-01T07:22:00.306Z,5.93
2023-06-01T07:24:30.182Z,4.25
2023-06-01T07:27:01.109Z,6.40
2023-06-01T07:29:42.011Z,3.75
2023-06-01T07:32:11.368Z,3.10
2023-06-01T07:37:28.423Z,3.42
2023-06-01T07:40:02.144Z,3.53
2023-06-01T07:42:32.951Z,2.30
2023-06-01T07:45:04.283Z,2.97
2023-06-01T07:47:39.761Z,3.70
2023-06-01T07:50:13.096Z,4.38
2023-06-01T07:52:46.363Z,3.47
2023-06-01T07:55:18.042Z,6.75
2023-06-01T07:57:49.195Z,5.40
2023-06-01T08:00:20.864Z,4.38
2023-06-01T08:02:52.076Z,3.20
2023-06-01T08:05:29.702Z,3.85
2023-06-01T08:08:01.716Z,4.07
2023-06-01T08:10:44.478Z,3.22
2023-06-01T08:13:28.577Z,4.05
2023-06-01T08:16:12.963Z,6.78
2023-06-01T08:21:28.784Z,3.80
2023-06-01T08:24:00.440Z,5.85
2023-06-01T08:26:28.406Z,5.07
2023-06-01T08:28:59.603Z,4.57
2023-06-01T08:31:31.874Z,4.32
2023-06-01T08:34:02.556Z,3.00
2023-06-01T08:36:44.357Z,5.33
2023-06-01T08:39:34.313Z,3.42
2023-06-01T08:42:36.961Z,3.08
2023-06-01T08:45:21.972Z,3.35
2023-06-01T08:47:58.472Z,3.35
2023-06-01T08:50:29.371Z,3.75
2023-06-01T08:53:05.877Z,3.58
2023-06-01T08:55:39.034Z,2.65
2023-06-01T08:58:19.289Z,1.70
2023-06-01T09:01:05.971Z,2.13
2023-06-01T09:03:43.837Z,3.78
2023-06-01T09:06:28.889Z,3.42
2023-06-01T09:09:14.531Z,2.20
2023-06-01T09:11:53.710Z,2.03
2023-06-01T09:14:33.606Z,2.20
2023-06-01T09:17:07.707Z,3.30
2023-06-01T09:19:48.993Z,3.88
2023-06-01T09:22:22.456Z,4.10
2023-06-01T09:25:11.458Z,2.47
2023-06-01T09:28:08.677Z,3.38
2023-06-01T09:30:46.144Z,4.25
2023-06-01T09:33:27.829Z,2.97
2023-06-01T09:36:01.295Z,2.75
2023-06-01T09:38:30.199Z,2.00
2023-06-01T09:41:00.791Z,2.70
2023-06-01T09:43:49.606Z,2.45
2023-06-01T09:46:23.127Z,3.33
2023-06-01T09:49:11.232Z,2.55
2023-06-01T09:51:41.515Z,1.30
2023-06-01T09:57:14.082Z,2.00
2023-06-01T10:00:14.165Z,2.72
2023-06-01T10:02:54.958Z,1.88
2023-06-01T10:05:29.246Z,1.83
2023-06-01T10:08:03.597Z,3.03
2023-06-01T10:10:33.299Z,1.60
2023-06-01T10:13:07.669Z,1.52
2023-06-01T10:15:45.484Z,2.88
2023-06-01T10:18:15.999Z,1.58
2023-06-01T10:20:46.459Z,2.17
2023-06-01T10:23:31.012Z,1.30
2023-06-01T10:26:05.963Z,3.20
2023-06-01T10:28:45.575Z,4.13
2023-06-01T10:31:42.357Z,4.15
2023-06-01T10:34:18.932Z,2.35
2023-06-01T10:37:25.764Z,2.45
2023-06-01T10:40:02.490Z,4.40
2023-06-01T10:42:48.639Z,6.78
2023-06-01T10:46:03.122Z,1.63
2023-06-01T10:49:01.954Z,4.70
2023-06-01T10:51:42.688Z,6.88
2023-06-01T10:54:35.432Z,2.67
2023-06-01T10:57:34.479Z,1.75
2023-06-01T11:00:31.158Z,2.00
2023-06-01T11:03:12.276Z,3.47
2023-06-01T11:05:57.703Z,2.22
2023-06-01T11:08:40.135Z,5.43
2023-06-01T11:11:10.633Z,2.83
2023-06-01T11:13:58.022Z,2.05
2023-06-01T11:16:42.661Z,2.05
2023-06-01T11:19:15.145Z,1.92
2023-06-01T11:21:49.846Z,3.22
2023-06-01T11:24:21.895Z,2.33
2023-06-01T11:26:56.449Z,2.30
2023-06-01T11:29:37.928Z,2.65
2023-06-01T11:32:13.236Z,2.80
2023-06-01T11:34:45.444Z,3.92
2023-06-01T11:37:25.307Z,2.67
2023-06-01T11:39:53.462Z,3.80
2023-06-01T11:42:26.476Z,2.10
2023-06-01T11:45:09.144Z,3.63
2023-06-01T11:47:41.276Z,4.82
2023-06-01T11:50:28.725Z,2.55
2023-06-01T11:53:07.845Z,2.17
2023-06-01T11:55:52.821Z,2.53
2023-06-01T11:58:32.695Z,2.20
2023-06-01T12:01:08.356Z,3.80
2023-06-01T12:03:50.053Z,2.85
2023-06-01T12:06:40.241Z,3.85
2023-06-01T12:09:17.226Z,1.67
2023-06-01T12:11:51.217Z,2.97
2023-06-01T12:14:32.215Z,3.55
2023-06-01T12:17:04.496Z,2.45
2023-06-01T12:19:41.764Z,2.70
2023-06-01T12:22:13.298Z,1.63
2023-06-01T12:24:47.968Z,1.92
2023-06-01T12:27:33.436Z,1.70
2023-06-01T12:30:06.466Z,1.73
2023-06-01T12:32:44.114Z,1.98
2023-06-01T12:35:17.008Z,3.08
2023-06-01T12:38:27.015Z,1.50
2023-06-01T12:41:22.477Z,2.28
2023-06-01T12:43:55.499Z,2.47
2023-06-01T12:46:29.477Z,1.65
2023-06-01T12:49:22.575Z,2.45
2023-06-01T12:51:58.870Z,1.60
2023-06-01T12:54:46.738Z,1.90
2023-06-01T12:57:23.199Z,1.25
2023-06-01T12:59:53.934Z,2.88
2023-06-01T13:02:24.879Z,1.50
2023-06-01T13:04:54.518Z,5.22
2023-06-01T13:07:24.857Z,1.08
2023-06-01T13:09:55.369Z,3.57
2023-06-01T13:12:29.265Z,2.78
2023-06-01T13:15:16.777Z,2.40
2023-06-01T13:20:34.616Z,3.45
2023-06-01T13:23:09.333Z,8.43
2023-06-01T13:25:42.290Z,3.00
2023-06-01T13:28:14.151Z,2.33
2023-06-01T13:30:54.669Z,2.05
2023-06-01T13:33:23.325Z,1.58
2023-06-01T13:35:58.357Z,1.40
2023-06-01T13:38:29.461Z,2.20
2023-06-01T13:41:01.986Z,2.17
2023-06-01T13:43:36.032Z,1.20
2023-06-01T13:46:16.071Z,2.60
2023-06-01T13:48:44.439Z,2.35
2023-06-01T13:51:16.110Z,2.15
2023-06-01T13:54:00.041Z,2.38
2023-06-01T13:56:28.171Z,1.38
2023-06-01T13:58:58.486Z,1.65
2023-06-01T14:01:30.761Z,2.17
2023-06-01T14:04:01.623Z,1.65
2023-06-01T14:06:31.893Z,3.45
2023-06-01T14:09:16.016Z,2.63
2023-06-01T14:11:54.900Z,2.08
2023-06-01T14:14:28.244Z,1.90
2023-06-01T14:16:58.741Z,3.33
2023-06-01T14:22:19.485Z,1.20
2023-06-01T14:24:54.457Z,2.13
2023-06-01T14:27:25.745Z,2.40
2023-06-01T14:29:54.545Z,2.15
2023-06-01T14:32:25.045Z,2.40
2023-06-01T14:34:58.810Z,2.55
2023-06-01T14:37:48.183Z,2.75
2023-06-01T14:40:20.099Z,1.23
2023-06-01T14:42:54.368Z,1.50
2023-06-01T14:45:24.726Z,2.03
2023-06-01T14:47:56.052Z,3.08
2023-06-01T14:50:42.007Z,2.60
2023-06-01T14:53:16.525Z,1.73
2023-06-01T14:55:53.316Z,5.00
2023-06-01T14:58:25.313Z,4.75
2023-06-01T15:00:56.392Z,7.07
2023-06-01T15:03:39.486Z,7.28
2023-06-01T15:06:10.615Z,2.95
2023-06-01T15:08:47.643Z,1.85
2023-06-01T15:11:25.338Z,1.85
2023-06-01T15:14:09.207Z,1.70
2023-06-01T15:16:46.731Z,4.25
2023-06-01T15:19:20.129Z,2.80
2023-06-01T15:21:58.909Z,1.60
2023-06-01T15:24:39.490Z,2.45
2023-06-01T15:27:10.202Z,2.00
2023-06-01T15:29:40.657Z,1.65
2023-06-01T15:32:09.847Z,2.28
2023-06-01T15:34:59.218Z,1.95
2023-06-01T15:37:36.597Z,2.28
2023-06-01T15:40:16.504Z,2.33
2023-06-01T15:42:53.607Z,2.83
2023-06-01T15:45:37.410Z,1.95
2023-06-01T15:48:13.577Z,2.38
2023-06-01T15:50:50.068Z,1.42
2023-06-01T15:53:26.904Z,2.15
2023-06-01T15:56:07.435Z,1.27
2023-06-01T15:58:52.198Z,4.30
2023-06-01T16:04:01.978Z,1.63
2023-06-01T16:06:32.562Z,2.60
2023-06-01T16:09:01.595Z,2.58
2023-06-01T16:11:45.880Z,1.65
2023-06-01T16:14:17.491Z,1.95
2023-06-01T16:16:52.330Z,1.53
2023-06-01T16:19:23.928Z,1.75
2023-06-01T16:22:01.403Z,1.67
2023-06-01T16:24:32.584Z,1.27
2023-06-01T16:27:10.011Z,5.80
2023-06-01T16:32:32.080Z,0.95
2023-06-01T16:35:02.192Z,2.55
2023-06-01T16:37:41.669Z,1.35
2023-06-01T16:40:13.528Z,5.57
2023-06-01T16:42:42.681Z,1.05
2023-06-01T16:45:19.108Z,1.83
2023-06-01T16:47:59.197Z,3.35
2023-06-01T16:50:31.238Z,1.55
2023-06-01T16:52:59.589Z,1.17
2023-06-01T16:55:34.707Z,2.63
2023-06-01T16:58:18.983Z,6.22
2023-06-01T17:00:50.237Z,4.07
2023-06-01T17:03:30.532Z,3.25
2023-06-01T17:06:04.713Z,1.67
2023-06-01T17:08:34.086Z,4.10
2023-06-01T17:11:09.978Z,1.85
2023-06-01T17:13:43.707Z,1.70
2023-06-01T17:16:14.674Z,1.33
2023-06-01T17:18:51.129Z,1.20
2023-06-01T17:21:23.472Z,2.65
2023-06-01T17:23:58.396Z,2.13
2023-06-01T17:26:28.016Z,2.28
2023-06-01T17:29:07.023Z,1.10
2023-06-01T17:31:37.543Z,3.20
2023-06-01T17:34:08.426Z,1.48
2023-06-01T17:36:38.744Z,1.65
2023-06-01T17:39:09.544Z,2.87
2023-06-01T17:41:45.069Z,3.08
2023-06-01T17:44:17.970Z,2.42
2023-06-01T17:46:49.086Z,1.65
2023-06-01T17:49:19.778Z,2.78
2023-06-01T17:51:54.206Z,4.82
2023-06-01T17:54:23.892Z,1.58
2023-06-01T17:56:56.309Z,1.60
2023-06-01T17:59:30.315Z,2.13
2023-06-01T18:02:07.327Z,1.20
2023-06-01T18:04:51.852Z,2.47
2023-06-01T18:07:21.650Z,3.13
2023-06-01T18:09:53.506Z,1.85
2023-06-01T18:14:57.733Z,2.25
2023-06-01T18:17:37.926Z,2.75
2023-06-01T18:20:23.627Z,3.85
2023-06-01T18:22:55.154Z,1.98
2023-06-01T18:25:25.413Z,2.65
2023-06-01T18:27:54.757Z,1.33
2023-06-01T18:30:28.916Z,4.78
2023-06-01T18:33:02.482Z,2.80
2023-06-01T18:38:24.461Z,1.80
2023-06-01T18:40:59.842Z,2.70
2023-06-01T18:43:33.385Z,3.80
2023-06-01T18:46:11.471Z,2.97
2023-06-01T18:48:47.887Z,2.53
2023-06-01T18:51:22.098Z,1.88
2023-06-01T18:53:53.542Z,1.88
2023-06-01T18:56:26.159Z,2.37
2023-06-01T18:59:04.313Z,4.15
2023-06-01T19:01:34.409Z,8.02
2023-06-01T19:04:10.708Z,1.67
2023-06-01T19:06:43.064Z,2.17
2023-06-01T19:09:18.582Z,2.47
2023-06-01T19:14:36.749Z,6.07
2023-06-01T19:17:09.290Z,1.92
2023-06-01T19:19:43.161Z,1.67
2023-06-01T19:22:15.299Z,3.08
2023-06-01T19:24:50.712Z,1.48
2023-06-01T19:27:24.102Z,2.13
2023-06-01T19:29:57.998Z,2.17
2023-06-01T19:32:29.943Z,3.33
2023-06-01T19:35:01.450Z,3.58
2023-06-01T19:37:33.409Z,5.43
2023-06-01T19:40:10.934Z,1.88
2023-06-01T19:42:42.700Z,2.35
2023-06-01T19:45:25.560Z,2.35
2023-06-01T19:48:05.456Z,4.53
2023-06-01T19:50:59.031Z,2.33
2023-06-01T19:53:39.082Z,1.70
2023-06-01T19:56:20.805Z,3.15
2023-06-01T20:01:37.660Z,0.90
2023-06-01T20:04:16.020Z,3.38
2023-06-01T20:06:49.967Z,12.85
2023-06-01T20:09:29.905Z,15.25
2023-06-01T20:12:09.936Z,32.30
2023-06-01T20:14:40.816Z,54.10
2023-06-01T20:17:17.260Z,94.28
2023-06-01T20:19:52.356Z,43.58
2023-06-01T20:22:29.968Z,35.95
2023-06-01T20:24:58.729Z,42.80
2023-06-01T20:27:30.448Z,44.47
2023-06-01T20:30:31.446Z,41.97
2023-06-01T20:33:14.451Z,27.30
2023-06-01T20:35:52.700Z,30.08
2023-06-01T20:38:27.915Z,26.25
2023-06-01T20:41:03.488Z,19.80
2023-06-01T20:43:40.244Z,21.40
2023-06-01T20:46:14.821Z,13.20
2023-06-01T20:49:03.854Z,12.23
2023-06-01T20:51:54.097Z,8.47
2023-06-01T20:54:32.155Z,6.20
2023-06-01T20:57:01.298Z,4.67
2023-06-01T20:59:38.707Z,6.30
2023-06-01T21:02:11.647Z,3.53
2023-06-01T21:04:43.582Z,4.10
2023-06-01T21:07:14.723Z,5.73
2023-06-01T21:09:49.148Z,3.08
2023-06-01T21:15:07.341Z,4.40
2023-06-01T21:17:44.593Z,5.43
2023-06-01T21:20:17.129Z,3.27
2023-06-01T21:22:49.221Z,2.40
2023-06-01T21:25:19.940Z,4.30
2023-06-01T21:30:42.475Z,2.33
2023-06-01T21:33:21.221Z,3.60
2023-06-01T21:35:55.146Z,2.63
2023-06-01T21:38:26.804Z,2.77
2023-06-01T21:43:36.368Z,1.80
2023-06-01T21:46:07.567Z,4.33
2023-06-01T21:48:36.920Z,4.68
2023-06-01T21:51:15.914Z,4.00
2023-06-01T21:53:46.257Z,5.50
2023-06-01T21:56:18.519Z,3.03
2023-06-01T22:01:33.634Z,2.43
2023-06-01T22:04:12.394Z,3.77
2023-06-01T22:06:45.560Z,2.13
2023-06-01T22:12:01.041Z,2.40
2023-06-01T22:14:32.376Z,5.20
2023-06-01T22:17:00.695Z,6.28
2023-06-01T22:19:31.183Z,6.60
2023-06-01T22:22:10.469Z,3.30
2023-06-01T22:24:54.250Z,4.87
2023-06-01T22:27:25.624Z,3.90
2023-06-01T22:30:08.731Z,2.33
2023-06-01T22:32:42.307Z,5.13
2023-06-01T22:35:16.807Z,3.60
2023-06-01T22:37:49.006Z,2.20
2023-06-01T22:40:22.975Z,2.60
2023-06-01T22:43:00.028Z,3.47
2023-06-01T22:45:42.868Z,1.70
2023-06-01T22:48:13.860Z,3.77
2023-06-01T22:50:45.696Z,2.00
2023-06-01T22:53:19.176Z,2.90
2023-06-01T22:58:38.633Z,2.77
2023-06-01T23:01:16.708Z,3.13
2023-06-01T23:03:47.684Z,3.93
2023-06-01T23:09:07.587Z,4.50
2023-06-01T23:11:53.242Z,2.77
2023-06-01T23:14:30.655Z,3.37
2023-06-01T23:17:12.348Z,1.80
2023-06-01T23:19:44.222Z,2.00
2023-06-01T23:22:29.615Z,1.93
2023-06-01T23:25:06.849Z,4.60
2023-06-01T23:27:44.209Z,2.80
2023-06-01T23:30:20.984Z,3.43
2023-06-01T23:32:56.543Z,2.17
2023-06-01T23:35:36.906Z,1.57
2023-06-01T23:38:15.950Z,5.72
2023-06-01T23:40:46.792Z,3.57
2023-06-01T23:43:20.989Z,2.67
2023-06-01T23:45:51.905Z,11.23
2023-06-01T23:48:27.062Z,3.40
2023-06-01T23:50:59.328Z,4.07
2023-06-01T23:53:35.770Z,9.70
2023-06-01T23:56:13.182Z,3.20
2023-06-01T23:58:49.581Z,2.07
